createdAt,value
2019-05-17T00:01:09.369Z,88.50
2019-05-17T00:03:36.555Z,88.50
2019-05-17T00:06:06.755Z,88.60
2019-05-17T00:08:34.833Z,88.50
2019-05-17T00:11:01.152Z,88.60
2019-05-17T00:13:27.516Z,88.70
2019-05-17T00:15:56.453Z,88.80
2019-05-17T00:18:21.961Z,88.80
2019-05-17T00:20:48.926Z,88.70
2019-05-17T00:23:17.249Z,88.80
2019-05-17T00:25:43.354Z,89.00
2019-05-17T00:28:09.645Z,89.10
2019-05-17T00:30:37.204Z,89.50
2019-05-17T00:33:03.983Z,90.10
2019-05-17T00:35:30.325Z,90.10
2019-05-17T00:37:57.071Z,90.30
2019-05-17T00:40:23.436Z,90.40
2019-05-17T00:42:49.676Z,90.30
2019-05-17T00:45:17.520Z,90.30
2019-05-17T00:47:46.592Z,90.30
2019-05-17T00:50:14.162Z,90.20
2019-05-17T00:52:40.990Z,90.20
2019-05-17T00:55:08.724Z,90.20
2019-05-17T00:57:36.866Z,90.20
2019-05-17T01:00:08.540Z,90.20
2019-05-17T01:02:36.374Z,90.20
2019-05-17T01:05:06.515Z,90.10
2019-05-17T01:07:32.956Z,90.10
2019-05-17T01:09:59.190Z,90.20
2019-05-17T01:12:27.191Z,90.10
2019-05-17T01:14:53.581Z,90.10
2019-05-17T01:17:19.830Z,90.20
2019-05-17T01:19:47.161Z,90.20
2019-05-17T01:22:13.676Z,90.10
2019-05-17T01:24:39.925Z,90.10
2019-05-17T01:27:06.672Z,90.10
2019-05-17T01:29:33.003Z,90.10
2019-05-17T01:32:00.268Z,90.10
2019-05-17T01:34:27.231Z,90.10
2019-05-17T01:36:53.672Z,90.10
2019-05-17T01:39:21.469Z,90.10
2019-05-17T01:41:49.546Z,90.20
2019-05-17T01:44:16.734Z,90.30
2019-05-17T01:46:43.220Z,90.30
2019-05-17T01:49:09.459Z,90.30
2019-05-17T01:51:37.047Z,90.30
2019-05-17T01:54:08.214Z,90.40
2019-05-17T01:56:36.796Z,90.40
2019-05-17T01:59:03.003Z,90.40
2019-05-17T02:01:29.244Z,90.50
2019-05-17T02:03:57.521Z,90.50
2019-05-17T02:06:27.123Z,90.50
2019-05-17T02:08:53.549Z,90.50
2019-05-17T02:11:19.788Z,90.50
2019-05-17T02:13:46.742Z,90.40
2019-05-17T02:16:13.059Z,90.50
2019-05-17T02:18:39.289Z,90.50
2019-05-17T02:21:06.597Z,90.60
2019-05-17T02:23:33.725Z,90.70
2019-05-17T02:26:00.595Z,91.00
2019-05-17T02:28:29.355Z,91.00
2019-05-17T02:30:56.962Z,91.00
2019-05-17T02:33:23.821Z,91.10
2019-05-17T02:35:53.372Z,91.20
2019-05-17T02:38:22.474Z,91.10
2019-05-17T02:40:49.486Z,91.10
2019-05-17T02:43:17.055Z,91.10
2019-05-17T02:45:43.894Z,91.10
2019-05-17T02:48:13.401Z,91.00
2019-05-17T02:50:43.018Z,91.00
2019-05-17T02:53:13.273Z,91.00
2019-05-17T02:55:43.491Z,91.00
2019-05-17T02:58:08.983Z,91.00
2019-05-17T03:00:37.112Z,91.00
2019-05-17T03:03:03.935Z,91.10
2019-05-17T03:05:33.933Z,91.30
2019-05-17T03:07:59.009Z,91.40
2019-05-17T03:10:29.059Z,91.40
2019-05-17T03:12:53.475Z,91.40
2019-05-17T03:15:23.109Z,91.40
2019-05-17T03:17:48.070Z,91.40
2019-05-17T03:20:15.395Z,91.40
2019-05-17T03:22:44.135Z,91.50
2019-05-17T03:25:13.193Z,91.50
2019-05-17T03:27:38.204Z,91.50
2019-05-17T03:30:06.865Z,91.40
2019-05-17T03:32:36.123Z,91.40
2019-05-17T03:35:06.822Z,91.40
2019-05-17T03:37:37.677Z,91.40
2019-05-17T03:40:23.340Z,91.40
2019-05-17T03:42:34.417Z,91.50
2019-05-17T03:45:02.940Z,91.50
2019-05-17T03:47:29.222Z,91.60
2019-05-17T03:49:55.467Z,91.70
2019-05-17T03:52:22.408Z,91.90
2019-05-17T03:54:48.849Z,92.20
2019-05-17T03:57:15.092Z,92.40
2019-05-17T03:59:43.087Z,92.60
2019-05-17T04:02:12.284Z,92.60
2019-05-17T04:04:37.640Z,92.60
2019-05-17T04:07:03.877Z,92.60
2019-05-17T04:09:32.692Z,92.60
2019-05-17T04:11:58.325Z,92.60
2019-05-17T04:14:24.561Z,92.40
2019-05-17T04:16:53.712Z,92.40
2019-05-17T04:19:19.004Z,92.40
2019-05-17T04:21:45.247Z,92.40
2019-05-17T04:24:12.686Z,92.40
2019-05-17T04:26:39.487Z,92.30
2019-05-17T04:29:05.773Z,92.30
2019-05-17T04:31:35.624Z,92.30
2019-05-17T04:34:02.942Z,92.10
2019-05-17T04:36:32.187Z,92.10
2019-05-17T04:38:58.020Z,92.10
2019-05-17T04:41:40.305Z,91.70
2019-05-17T04:43:53.181Z,91.70
2019-05-17T04:46:23.346Z,90.50
2019-05-17T04:48:47.998Z,89.70
2019-05-17T04:51:14.330Z,88.40
2019-05-17T04:53:43.115Z,86.50
2019-05-17T04:56:08.895Z,83.50
2019-05-17T04:58:35.149Z,82.20
2019-05-17T05:01:04.143Z,80.70
2019-05-17T05:03:32.596Z,79.70
2019-05-17T05:05:58.742Z,78.10
2019-05-17T05:08:24.970Z,76.50
2019-05-17T05:10:53.500Z,73.80
2019-05-17T05:13:22.493Z,71.00
2019-05-17T05:15:47.520Z,69.20
2019-05-17T05:18:14.105Z,68.60
2019-05-17T05:20:43.136Z,66.30
2019-05-17T05:23:08.708Z,65.10
2019-05-17T05:25:37.743Z,62.70
2019-05-17T05:28:04.078Z,62.80
2019-05-17T05:30:31.997Z,61.00
2019-05-17T05:32:58.434Z,60.20
2019-05-17T05:35:24.995Z,58.90
2019-05-17T05:37:52.591Z,57.30
2019-05-17T05:40:21.290Z,56.30
2019-05-17T05:42:47.116Z,55.60
2019-05-17T05:45:14.366Z,54.40
2019-05-17T05:47:41.703Z,53.90
2019-05-17T05:50:08.654Z,53.80
2019-05-17T05:52:35.020Z,53.00
2019-05-17T05:55:01.710Z,53.00
2019-05-17T05:57:27.920Z,53.40
2019-05-17T05:59:54.153Z,52.10
2019-05-17T06:02:21.897Z,52.80
2019-05-17T06:04:48.128Z,53.20
2019-05-17T06:07:14.465Z,52.80
2019-05-17T06:09:42.376Z,52.30
2019-05-17T06:12:22.713Z,52.10
2019-05-17T06:14:36.931Z,51.60
2019-05-17T06:17:03.302Z,50.90
2019-05-17T06:19:31.479Z,50.90
2019-05-17T06:21:57.697Z,51.00
2019-05-17T06:24:23.919Z,51.70
2019-05-17T06:26:52.367Z,50.90
2019-05-17T06:29:18.340Z,50.90
2019-05-17T06:31:44.713Z,50.60
2019-05-17T06:34:11.620Z,50.90
2019-05-17T06:36:38.256Z,50.10
2019-05-17T06:39:06.880Z,50.20
2019-05-17T06:41:33.112Z,50.80
2019-05-17T06:43:59.385Z,50.40
2019-05-17T06:46:25.655Z,49.90
2019-05-17T06:48:53.036Z,50.70
2019-05-17T06:51:22.111Z,50.20
2019-05-17T06:53:48.439Z,50.20
2019-05-17T06:56:15.042Z,49.90
2019-05-17T06:58:43.647Z,49.30
2019-05-17T07:01:14.693Z,48.50
2019-05-17T07:03:41.134Z,48.80
2019-05-17T07:06:10.926Z,48.30
2019-05-17T07:08:37.532Z,48.60
2019-05-17T07:11:03.815Z,47.80
2019-05-17T07:13:30.276Z,48.50
2019-05-17T07:15:56.598Z,47.40
2019-05-17T07:18:22.841Z,47.10
2019-05-17T07:20:50.165Z,47.80
2019-05-17T07:23:19.562Z,47.90
2019-05-17T07:25:45.544Z,48.60
2019-05-17T07:28:11.806Z,47.60
2019-05-17T07:30:39.960Z,48.50
2019-05-17T07:33:06.622Z,48.70
2019-05-17T07:35:32.932Z,48.10
2019-05-17T07:37:59.648Z,47.60
2019-05-17T07:40:25.942Z,46.90
2019-05-17T07:42:52.365Z,46.90
2019-05-17T07:45:20.324Z,46.60
2019-05-17T07:47:46.854Z,45.20
2019-05-17T07:50:13.977Z,46.30
2019-05-17T07:52:40.267Z,46.10
2019-05-17T07:55:07.363Z,47.50
2019-05-17T07:57:33.703Z,46.80
2019-05-17T08:00:00.192Z,46.90
2019-05-17T08:02:26.570Z,47.50
2019-05-17T08:04:52.793Z,47.10
2019-05-17T08:07:19.663Z,46.60
2019-05-17T08:09:46.323Z,46.20
2019-05-17T08:12:12.651Z,45.30
2019-05-17T08:14:40.089Z,45.30
2019-05-17T08:17:06.534Z,45.40
2019-05-17T08:19:34.685Z,44.80
2019-05-17T08:22:00.901Z,46.30
2019-05-17T08:24:27.147Z,45.60
2019-05-17T08:26:53.372Z,46.40
2019-05-17T08:29:20.328Z,46.40
2019-05-17T08:31:46.690Z,45.90
2019-05-17T08:34:13.684Z,47.50
2019-05-17T08:36:40.522Z,45.60
2019-05-17T08:39:07.405Z,46.20
2019-05-17T08:41:33.648Z,46.10
2019-05-17T08:44:00.729Z,46.90
2019-05-17T08:46:27.216Z,48.40
2019-05-17T08:48:53.453Z,46.80
2019-05-17T08:51:19.783Z,48.20
2019-05-17T08:53:46.119Z,48.30
2019-05-17T08:56:12.371Z,48.50
2019-05-17T08:58:40.395Z,49.60
2019-05-17T09:01:06.950Z,47.30
2019-05-17T09:03:33.209Z,47.70
2019-05-17T09:06:02.345Z,47.20
2019-05-17T09:08:29.748Z,46.70
2019-05-17T09:10:55.734Z,46.50
2019-05-17T09:13:21.972Z,46.40
2019-05-17T09:15:49.386Z,46.90
2019-05-17T09:18:15.829Z,48.10
2019-05-17T09:20:42.152Z,48.70
2019-05-17T09:23:09.704Z,49.20
2019-05-17T09:25:36.462Z,48.40
2019-05-17T09:28:03.134Z,47.30
2019-05-17T09:30:31.413Z,48.50
2019-05-17T09:33:00.134Z,49.30
2019-05-17T09:35:26.086Z,48.50
2019-05-17T09:37:52.340Z,47.30
2019-05-17T09:40:20.062Z,48.50
2019-05-17T09:42:49.756Z,47.90
2019-05-17T09:45:16.238Z,47.20
2019-05-17T09:47:42.459Z,47.00
2019-05-17T09:50:10.092Z,48.70
2019-05-17T09:52:36.854Z,48.30
2019-05-17T09:55:04.519Z,49.30
2019-05-17T09:57:30.746Z,48.30
2019-05-17T10:00:17.352Z,48.30
2019-05-17T10:02:43.579Z,48.00
2019-05-17T10:05:10.699Z,50.80
2019-05-17T10:07:39.972Z,49.40
2019-05-17T10:10:06.214Z,49.60
2019-05-17T10:12:32.585Z,48.70
2019-05-17T10:15:00.469Z,50.70
2019-05-17T10:17:29.010Z,49.60
2019-05-17T10:19:55.081Z,48.30
2019-05-17T10:22:21.309Z,49.40
2019-05-17T10:24:47.518Z,47.90
2019-05-17T10:27:14.699Z,48.40
2019-05-17T10:29:41.032Z,48.20
2019-05-17T10:32:07.271Z,50.30
2019-05-17T10:34:33.488Z,49.80
2019-05-17T10:36:59.720Z,48.50
2019-05-17T10:39:25.944Z,49.20
2019-05-17T10:41:52.225Z,50.70
2019-05-17T10:44:19.883Z,50.00
2019-05-17T10:46:46.218Z,51.60
2019-05-17T10:49:12.860Z,49.40
2019-05-17T10:51:40.264Z,50.10
2019-05-17T10:54:06.639Z,50.60
2019-05-17T10:56:32.860Z,49.80
2019-05-17T10:59:00.123Z,49.30
2019-05-17T11:01:26.556Z,48.90
2019-05-17T11:03:52.789Z,50.00
2019-05-17T11:06:19.740Z,50.70
2019-05-17T11:08:46.241Z,51.80
2019-05-17T11:11:12.467Z,49.80
2019-05-17T11:13:38.683Z,49.50
2019-05-17T11:16:05.334Z,49.70
2019-05-17T11:18:31.556Z,49.90
2019-05-17T11:20:57.928Z,48.70
2019-05-17T11:23:24.146Z,50.00
2019-05-17T11:25:50.372Z,48.70
2019-05-17T11:28:16.605Z,48.80
2019-05-17T11:30:43.225Z,48.60
2019-05-17T11:33:09.462Z,49.50
2019-05-17T11:35:35.711Z,48.80
2019-05-17T11:38:02.581Z,48.40
2019-05-17T11:40:29.489Z,49.30
2019-05-17T11:42:55.719Z,49.20
2019-05-17T11:45:28.165Z,49.20
2019-05-17T11:47:51.329Z,49.30
2019-05-17T11:50:18.075Z,49.50
2019-05-17T11:52:44.332Z,51.00
2019-05-17T11:55:10.890Z,50.30
2019-05-17T11:57:37.122Z,51.50
2019-05-17T12:00:09.767Z,51.30
2019-05-17T12:02:36.016Z,49.60
2019-05-17T12:05:04.253Z,48.60
2019-05-17T12:07:30.585Z,49.20
2019-05-17T12:09:56.860Z,50.40
2019-05-17T12:12:23.076Z,51.50
2019-05-17T12:14:49.401Z,52.30
2019-05-17T12:17:15.628Z,52.00
2019-05-17T12:19:41.871Z,52.20
2019-05-17T12:22:08.114Z,50.80
2019-05-17T12:24:34.451Z,50.00
2019-05-17T12:27:00.915Z,50.20
2019-05-17T12:29:27.150Z,50.70
2019-05-17T12:31:59.149Z,50.40
2019-05-17T12:34:25.370Z,50.80
2019-05-17T12:36:51.580Z,50.10
2019-05-17T12:39:17.812Z,50.30
2019-05-17T12:41:44.075Z,50.80
2019-05-17T12:44:10.332Z,50.80
2019-05-17T12:46:36.548Z,49.90
2019-05-17T12:49:02.784Z,51.20
2019-05-17T12:51:32.775Z,51.20
2019-05-17T12:53:57.178Z,51.60
2019-05-17T12:56:23.426Z,50.80
2019-05-17T12:58:49.642Z,50.20
2019-05-17T13:01:15.889Z,50.80
2019-05-17T13:03:42.222Z,51.70
2019-05-17T13:06:08.569Z,50.80
2019-05-17T13:08:34.815Z,51.60
2019-05-17T13:11:01.585Z,51.60
2019-05-17T13:13:27.784Z,51.40
2019-05-17T13:15:54.022Z,49.60
2019-05-17T13:18:20.262Z,50.10
2019-05-17T13:20:46.513Z,50.50
2019-05-17T13:23:14.644Z,50.50
2019-05-17T13:25:40.879Z,50.30
2019-05-17T13:28:07.128Z,50.40
2019-05-17T13:30:33.600Z,50.00
2019-05-17T13:32:59.817Z,50.40
2019-05-17T13:35:26.077Z,51.00
2019-05-17T13:37:52.328Z,49.10
2019-05-17T13:40:18.663Z,49.40
2019-05-17T13:42:44.915Z,49.30
2019-05-17T13:45:13.338Z,50.30
2019-05-17T13:47:39.576Z,50.30
2019-05-17T13:50:06.925Z,50.10
2019-05-17T13:52:33.481Z,49.60
2019-05-17T13:54:59.720Z,50.80
2019-05-17T13:57:25.969Z,49.90
2019-05-17T13:59:52.233Z,50.90
2019-05-17T14:02:18.501Z,50.70
2019-05-17T14:04:44.944Z,50.50
2019-05-17T14:07:11.183Z,49.60
2019-05-17T14:09:37.472Z,50.80
2019-05-17T14:12:03.778Z,50.60
2019-05-17T14:14:30.037Z,51.10
2019-05-17T14:16:56.272Z,51.80
2019-05-17T14:19:22.499Z,51.30
2019-05-17T14:21:48.726Z,50.80
2019-05-17T14:24:14.966Z,49.50
2019-05-17T14:26:41.236Z,50.40
2019-05-17T14:29:07.509Z,49.20
2019-05-17T14:31:33.774Z,50.60
2019-05-17T14:34:00.012Z,51.50
2019-05-17T14:36:26.331Z,51.60
2019-05-17T14:38:52.566Z,51.90
2019-05-17T14:41:18.885Z,52.00
2019-05-17T14:43:45.425Z,51.60
2019-05-17T14:46:11.648Z,52.50
2019-05-17T14:48:37.921Z,50.70
2019-05-17T14:51:04.544Z,51.00
2019-05-17T14:53:30.778Z,51.20
2019-05-17T14:55:57.014Z,51.40
2019-05-17T14:58:23.250Z,51.50
2019-05-17T15:00:49.546Z,50.20
2019-05-17T15:03:15.781Z,50.40
2019-05-17T15:05:42.301Z,49.90
2019-05-17T15:08:08.524Z,50.20
2019-05-17T15:10:34.773Z,49.70
2019-05-17T15:13:01.674Z,50.00
2019-05-17T15:15:28.430Z,50.70
2019-05-17T15:17:54.807Z,50.40
2019-05-17T15:20:21.049Z,49.70
2019-05-17T15:22:47.288Z,49.40
2019-05-17T15:25:13.616Z,49.40
2019-05-17T15:27:39.857Z,49.30
2019-05-17T15:30:06.724Z,49.10
2019-05-17T15:32:32.962Z,49.70
2019-05-17T15:34:59.249Z,49.80
2019-05-17T15:37:25.496Z,49.60
2019-05-17T15:39:51.733Z,49.30
2019-05-17T15:42:17.941Z,49.00
2019-05-17T15:44:44.175Z,48.90
2019-05-17T15:47:10.382Z,49.10
2019-05-17T15:49:38.569Z,48.70
2019-05-17T15:52:04.842Z,48.60
2019-05-17T15:54:31.064Z,48.50
2019-05-17T15:56:58.042Z,48.90
2019-05-17T15:59:24.272Z,48.40
2019-05-17T16:01:50.565Z,49.00
2019-05-17T16:04:16.747Z,48.60
2019-05-17T16:06:42.961Z,48.30
2019-05-17T16:09:09.239Z,48.50
2019-05-17T16:11:35.454Z,48.70
2019-05-17T16:14:35.810Z,48.40
2019-05-17T16:17:02.395Z,48.20
2019-05-17T16:19:35.084Z,47.70
2019-05-17T16:22:02.289Z,47.60
2019-05-17T16:24:28.564Z,47.60
2019-05-17T16:27:00.955Z,47.60
2019-05-17T16:29:27.209Z,47.20
2019-05-17T16:32:00.536Z,47.70
2019-05-17T16:34:27.257Z,47.70
2019-05-17T16:36:58.532Z,47.70
2019-05-17T16:39:25.829Z,47.60
2019-05-17T16:41:52.310Z,47.60
2019-05-17T16:44:18.521Z,47.60
2019-05-17T16:46:44.775Z,47.70
2019-05-17T16:49:11.158Z,47.50
2019-05-17T16:51:37.389Z,48.10
2019-05-17T16:54:03.792Z,48.30
2019-05-17T16:56:30.021Z,48.80
2019-05-17T16:58:56.297Z,48.60
2019-05-17T17:01:22.647Z,49.00
2019-05-17T17:03:48.896Z,49.40
2019-05-17T17:06:15.289Z,48.40
2019-05-17T17:08:47.010Z,48.70
2019-05-17T17:11:14.492Z,47.90
2019-05-17T17:13:40.877Z,48.10
2019-05-17T17:16:07.179Z,48.70
2019-05-17T17:18:33.521Z,48.60
2019-05-17T17:20:59.855Z,49.20
2019-05-17T17:23:26.248Z,49.10
2019-05-17T17:27:08.972Z,49.20
2019-05-17T17:29:35.219Z,49.40
2019-05-17T17:32:01.502Z,50.60
2019-05-17T17:34:27.730Z,50.40
2019-05-17T17:36:53.986Z,50.50
2019-05-17T17:39:20.228Z,50.40
2019-05-17T17:41:46.490Z,50.80
2019-05-17T17:44:12.724Z,51.20
2019-05-17T17:46:39.089Z,50.70
2019-05-17T17:49:05.359Z,51.20
2019-05-17T17:51:31.731Z,51.40
2019-05-17T17:53:58.649Z,51.80
2019-05-17T17:56:24.992Z,51.90
2019-05-17T17:58:51.240Z,52.00
2019-05-17T18:01:17.566Z,51.70
2019-05-17T18:03:43.793Z,52.00
2019-05-17T18:06:10.984Z,52.20
2019-05-17T18:08:38.802Z,52.40
2019-05-17T18:11:05.355Z,52.60
2019-05-17T18:17:23.687Z,52.90
2019-05-17T18:19:50.069Z,53.00
2019-05-17T18:22:16.364Z,53.40
2019-05-17T18:24:42.598Z,53.20
2019-05-17T18:27:08.848Z,53.50
2019-05-17T18:29:35.073Z,53.60
2019-05-17T18:32:01.431Z,53.60
2019-05-17T18:34:27.701Z,54.60
2019-05-17T18:36:53.962Z,54.00
2019-05-17T18:39:20.258Z,54.00
2019-05-17T18:41:46.517Z,54.20
2019-05-17T18:44:25.938Z,54.90
2019-05-17T18:46:41.065Z,54.70
2019-05-17T18:49:07.533Z,54.80
2019-05-17T18:51:33.899Z,54.90
2019-05-17T18:54:01.810Z,55.00
2019-05-17T18:56:28.229Z,55.10
2019-05-17T18:58:54.772Z,55.40
2019-05-17T19:01:21.009Z,55.70
2019-05-17T19:03:47.265Z,56.20
2019-05-17T19:06:13.506Z,56.30
2019-05-17T19:08:39.765Z,56.60
2019-05-17T19:11:06.230Z,57.80
2019-05-17T19:13:32.515Z,58.30
2019-05-17T19:15:58.881Z,58.90
2019-05-17T19:18:25.138Z,59.40
2019-05-17T19:20:51.369Z,58.50
2019-05-17T19:23:17.929Z,58.60
2019-05-17T19:25:44.415Z,59.00
2019-05-17T19:28:10.623Z,59.50
2019-05-17T19:30:40.037Z,60.30
2019-05-17T19:33:06.397Z,60.10
2019-05-17T19:35:32.667Z,60.90
2019-05-17T19:37:58.914Z,61.30
2019-05-17T19:40:25.168Z,61.60
2019-05-17T19:42:51.571Z,62.00
2019-05-17T19:45:18.217Z,62.30
2019-05-17T19:47:44.523Z,62.80
2019-05-17T19:50:13.564Z,63.20
2019-05-17T19:52:39.801Z,63.60
2019-05-17T19:55:06.972Z,63.60
2019-05-17T19:57:35.971Z,63.70
2019-05-17T20:00:06.833Z,64.20
2019-05-17T20:02:33.091Z,64.40
2019-05-17T20:04:59.375Z,64.70
2019-05-17T20:07:25.704Z,65.40
2019-05-17T20:09:51.978Z,65.60
2019-05-17T20:12:18.233Z,66.60
2019-05-17T20:14:44.457Z,66.80
2019-05-17T20:17:12.372Z,67.20
2019-05-17T20:19:38.808Z,67.80
2019-05-17T20:22:05.071Z,68.00
2019-05-17T20:24:44.790Z,68.50
2019-05-17T20:27:11.041Z,68.80
2019-05-17T20:29:37.382Z,69.10
2019-05-17T20:32:03.623Z,69.60
2019-05-17T20:34:29.866Z,69.90
2019-05-17T20:36:56.113Z,70.10
2019-05-17T20:39:22.393Z,70.40
2019-05-17T20:41:48.740Z,70.00
2019-05-17T20:44:14.990Z,70.90
2019-05-17T20:47:01.137Z,71.10
2019-05-17T20:49:27.399Z,71.50
2019-05-17T20:51:53.634Z,72.50
2019-05-17T20:54:20.142Z,72.40
2019-05-17T20:56:46.406Z,73.10
2019-05-17T20:59:12.665Z,73.40
2019-05-17T21:01:38.897Z,73.60
2019-05-17T21:04:05.185Z,73.80
2019-05-17T21:06:31.421Z,73.90
2019-05-17T21:08:57.754Z,74.10
2019-05-17T21:11:24.014Z,74.40
2019-05-17T21:13:50.274Z,74.70
2019-05-17T21:16:16.510Z,74.90
2019-05-17T21:18:42.766Z,75.20
2019-05-17T21:21:08.990Z,75.60
2019-05-17T21:23:35.234Z,75.90
2019-05-17T21:26:01.506Z,75.70
2019-05-17T21:28:27.728Z,75.70
2019-05-17T21:30:54.298Z,75.60
2019-05-17T21:33:20.550Z,75.90
2019-05-17T21:35:46.781Z,76.20
2019-05-17T21:38:13.010Z,76.00
2019-05-17T21:40:39.254Z,76.00
2019-05-17T21:43:05.493Z,76.20
2019-05-17T21:45:31.725Z,76.50
2019-05-17T21:47:58.002Z,76.80
2019-05-17T21:50:24.239Z,77.00
2019-05-17T21:52:50.470Z,77.60
2019-05-17T21:55:16.716Z,77.40
2019-05-17T21:57:42.955Z,77.70
2019-05-17T22:00:15.180Z,77.90
2019-05-17T22:02:41.414Z,78.10
2019-05-17T22:05:08.177Z,78.10
2019-05-17T22:07:34.396Z,78.30
2019-05-17T22:10:00.659Z,78.70
2019-05-17T22:12:26.887Z,79.60
2019-05-17T22:14:53.116Z,78.90
2019-05-17T22:17:19.360Z,79.20
2019-05-17T22:19:45.604Z,79.60
2019-05-17T22:22:11.867Z,79.80
2019-05-17T22:24:38.664Z,80.00
2019-05-17T22:27:05.448Z,80.30
2019-05-17T22:29:32.373Z,80.40
2019-05-17T22:31:59.248Z,80.60
2019-05-17T22:34:25.956Z,80.60
2019-05-17T22:36:52.821Z,81.10
2019-05-17T22:39:19.838Z,81.20
2019-05-17T22:41:46.712Z,81.40
2019-05-17T22:44:13.357Z,81.60
2019-05-17T22:46:40.307Z,81.90
2019-05-17T22:49:07.143Z,82.20
2019-05-17T22:51:34.247Z,82.20
2019-05-17T22:54:01.352Z,82.40
2019-05-17T22:56:28.212Z,82.60
2019-05-17T22:58:55.136Z,82.90
2019-05-17T23:01:22.183Z,82.90
2019-05-17T23:03:49.291Z,83.00
2019-05-17T23:06:16.441Z,83.30
2019-05-17T23:08:43.205Z,84.00
2019-05-17T23:11:10.126Z,83.50
2019-05-17T23:13:37.756Z,83.60
2019-05-17T23:16:06.378Z,83.60
2019-05-17T23:18:33.137Z,83.60
2019-05-17T23:20:59.643Z,83.80
2019-05-17T23:23:25.980Z,83.90
2019-05-17T23:25:52.210Z,84.20
2019-05-17T23:28:18.464Z,84.40
2019-05-17T23:30:45.468Z,84.50
2019-05-17T23:33:11.698Z,84.60
2019-05-17T23:35:37.920Z,84.80
2019-05-17T23:38:04.152Z,85.50
2019-05-17T23:40:30.381Z,84.90
2019-05-17T23:42:56.659Z,84.80
2019-05-17T23:45:22.917Z,84.80
2019-05-17T23:47:49.206Z,84.80
2019-05-17T23:50:15.557Z,84.90
2019-05-17T23:52:42.182Z,84.90
2019-05-17T23:55:08.613Z,85.00
2019-05-17T23:57:34.851Z,85.10
